Time;durP1;ratioP1;P1;durP2;ratioP2;P2;SDS_P1;SDS_P2;PMS_P1;PMS_P2;Temp;Humidity;BMP_temperature;BMP_pressure;BME280_temperature;BME280_humidity;BME280_pressure;Samples;Min_cycle;Max_cycle;Signal;HPM_P1;HPM_P2
2023/01/29 00:01:04;;;;;;;3.33;2.38;;;;;;;15.86;42.92;94004.47;4950208;28;20039;-93
2023/01/29 00:03:29;;;;;;;2.83;2.20;;;;;;;15.86;42.66;94003.72;4954890;28;20042;-93
2023/01/29 00:05:55;;;;;;;3.28;2.33;;;;;;;15.85;43.23;94005.69;4955003;28;20043;-92
2023/01/29 00:08:21;;;;;;;2.40;2.08;;;;;;;15.85;42.97;93999.50;4954434;28;20047;-93
2023/01/29 00:10:48;;;;;;;2.92;2.63;;;;;;;15.85;43.18;93986.63;4954473;28;20438;-93
2023/01/29 00:13:13;;;;;;;3.67;2.55;;;;;;;15.85;43.13;94000.25;4961015;28;20046;-93
2023/01/29 00:15:39;;;;;;;2.42;2.05;;;;;;;15.85;43.10;93994.06;4970751;28;20398;-93
2023/01/29 00:18:04;;;;;;;2.63;2.03;;;;;;;15.86;43.07;94009.19;4951970;28;20054;-94
2023/01/29 00:20:30;;;;;;;2.35;2.05;;;;;;;15.89;42.94;94006.25;4954653;28;20035;-94
2023/01/29 00:22:55;;;;;;;2.33;2.00;;;;;;;15.95;42.68;93998.88;4955422;28;20042;-93
2023/01/29 00:25:21;;;;;;;3.00;2.40;;;;;;;15.87;43.08;94002.50;4951818;28;20043;-93
2023/01/29 00:27:46;;;;;;;2.13;1.77;;;;;;;15.91;42.89;94008.50;4955094;28;20096;-93
2023/01/29 00:30:17;;;;;;;2.67;2.10;;;;;;;15.85;43.06;94013.13;4955041;28;20038;-92
2023/01/29 00:32:43;;;;;;;;;;;;;;;15.91;43.08;94014.69;4956274;28;20051;-93
2023/01/29 00:35:08;;;;;;;2.80;2.17;;;;;;;15.88;42.94;94021.09;4936805;28;19926;-94
2023/01/29 00:37:35;;;;;;;2.10;1.83;;;;;;;15.84;43.23;94003.47;4916827;29;20650;-93
2023/01/29 00:40:01;;;;;;;2.85;2.35;;;;;;;15.86;42.83;94007.19;4901963;29;20196;-93
2023/01/29 00:45:11;;;;;;;3.30;2.17;;;;;;;15.86;43.20;93995.56;4931989;29;20051;-93
2023/01/29 00:47:36;;;;;;;3.00;2.20;;;;;;;15.85;43.21;93989.34;4931484;29;20139;-93
2023/01/29 00:50:05;;;;;;;2.33;1.92;;;;;;;15.83;43.04;93985.59;4914292;29;20035;-93
2023/01/29 00:52:32;;;;;;;2.60;2.20;;;;;;;15.83;43.07;93993.78;4915554;29;20404;-93
2023/01/29 00:54:59;;;;;;;3.13;2.08;;;;;;;15.83;43.19;93997.25;4919921;29;20130;-93
2023/01/29 00:57:25;;;;;;;3.42;2.35;;;;;;;15.86;43.11;93999.03;4922215;29;20594;-93
2023/01/29 00:59:52;;;;;;;2.67;2.00;;;;;;;15.84;42.96;94001.47;4923745;29;20054;-93
2023/01/29 01:05:02;;;;;;;3.30;2.28;;;;;;;15.84;43.12;94006.19;4939139;29;20055;-94
2023/01/29 01:07:28;;;;;;;3.08;2.20;;;;;;;15.86;42.77;93996.28;4938101;29;20067;-93
2023/01/29 01:12:37;;;;;;;2.28;1.83;;;;;;;15.85;43.43;94002.97;4944089;28;20102;-93
2023/01/29 01:15:03;;;;;;;2.30;1.85;;;;;;;15.87;42.90;93999.78;4926029;28;20059;-95
2023/01/29 01:17:29;;;;;;;2.25;1.90;;;;;;;15.86;42.80;93996.28;4926014;29;20051;-93
2023/01/29 01:19:54;;;;;;;3.38;2.22;;;;;;;15.84;42.94;93989.81;4926686;29;20031;-93
2023/01/29 01:22:20;;;;;;;3.25;2.38;;;;;;;15.84;42.88;93992.56;4921568;29;20474;-93
2023/01/29 01:24:46;;;;;;;2.92;2.35;;;;;;;15.84;43.15;93987.09;4918306;28;20035;-93
2023/01/29 01:27:12;;;;;;;3.03;1.88;;;;;;;15.85;43.01;93992.06;4925351;28;20054;-93
2023/01/29 01:29:37;;;;;;;2.83;2.28;;;;;;;15.93;42.20;93981.50;4925841;29;20039;-94
2023/01/29 01:32:03;;;;;;;3.30;2.22;;;;;;;15.86;42.82;93979.94;4928345;28;20043;-93
2023/01/29 01:34:29;;;;;;;3.13;2.25;;;;;;;15.83;42.87;93980.91;4965233;28;20034;-93
2023/01/29 01:36:55;;;;;;;2.72;2.20;;;;;;;15.92;42.52;93972.56;4963692;28;20076;-94
2023/01/29 01:39:23;;;;;;;3.28;2.58;;;;;;;15.86;43.23;93977.22;4948234;28;20474;-94
2023/01/29 01:41:49;;;;;;;2.55;1.90;;;;;;;15.84;43.01;93971.50;4947522;28;20046;-94
2023/01/29 01:44:50;;;;;;;2.90;2.08;;;;;;;15.87;42.95;93970.53;4963593;28;20042;-93
2023/01/29 01:47:15;;;;;;;2.53;2.20;;;;;;;15.80;43.14;93968.25;4958421;28;20518;-93
2023/01/29 01:49:41;;;;;;;2.60;2.10;;;;;;;15.83;42.80;93966.53;4928364;28;20066;-93
2023/01/29 01:52:06;;;;;;;2.47;2.25;;;;;;;15.82;42.95;93965.78;4926166;28;20042;-93
2023/01/29 01:54:31;;;;;;;2.35;2.03;;;;;;;15.83;43.02;93980.16;4927549;28;20039;-93
2023/01/29 01:57:14;;;;;;;3.10;2.30;;;;;;;15.85;43.14;93983.91;4942787;28;20514;-93
2023/01/29 01:59:47;;;;;;;2.60;2.00;;;;;;;15.83;42.66;93978.16;4959215;28;20257;-93
2023/01/29 02:10:44;;;;;;;2.92;2.10;;;;;;;15.84;43.33;94003.47;4939195;29;20105;-93
2023/01/29 02:13:10;;;;;;;2.28;2.00;;;;;;;15.82;42.66;94003.94;4923408;28;20130;-93
2023/01/29 02:15:35;;;;;;;3.00;2.50;;;;;;;15.83;43.14;94015.59;4924802;28;20616;-93
2023/01/29 02:18:00;;;;;;;3.00;2.08;;;;;;;15.85;43.18;94008.44;4923522;29;20054;-93
2023/01/29 02:20:28;;;;;;;2.53;2.13;;;;;;;15.85;43.34;94004.94;4921193;29;20584;-94
2023/01/29 02:22:54;;;;;;;3.08;2.33;;;;;;;15.85;43.01;94015.84;4925898;28;20047;-93
2023/01/29 02:25:39;;;;;;;3.08;2.10;;;;;;;15.89;42.91;94005.50;4959999;28;20560;-94
2023/01/29 02:29:21;;;;;;;2.85;1.98;;;;;;;15.86;43.09;94001.00;4972166;28;20042;-94
2023/01/29 02:31:58;;;;;;;2.67;1.98;;;;;;;15.79;42.88;93999.47;4955854;28;20070;-94
2023/01/29 02:34:27;;;;;;;2.53;2.10;;;;;;;15.80;42.97;94000.22;4940133;28;20047;-93
2023/01/29 02:37:01;;;;;;;2.53;2.00;;;;;;;15.85;43.12;94015.84;4930542;28;20084;-94
2023/01/29 02:39:28;;;;;;;2.60;2.08;;;;;;;15.85;43.14;94002.97;4917109;29;20051;-94
2023/01/29 02:42:10;;;;;;;2.33;1.73;;;;;;;15.84;42.89;93996.03;4926666;28;20047;-93
2023/01/29 02:44:47;;;;;;;2.25;2.00;;;;;;;15.93;42.20;93997.88;4935665;29;20051;-93
2023/01/29 02:47:35;;;;;;;2.67;1.92;;;;;;;15.85;42.78;94000.25;4911567;28;20035;-94
2023/01/29 02:50:06;;;;;;;2.67;1.80;;;;;;;15.83;43.13;94010.88;4931312;29;20122;-94
2023/01/29 02:52:38;;;;;;;2.80;2.10;;;;;;;15.82;43.12;93992.28;4912140;29;20057;-93
2023/01/29 02:55:11;;;;;;;2.95;1.90;;;;;;;15.82;43.01;94003.19;4905125;28;20039;-93
2023/01/29 02:57:38;;;;;;;3.05;2.22;;;;;;;15.84;42.76;94004.22;4911899;29;20050;-93
2023/01/29 03:00:18;;;;;;;2.78;1.95;;;;;;;15.86;42.93;93998.28;4936056;28;20047;-93
2023/01/29 03:03:00;;;;;;;2.30;1.83;;;;;;;15.94;42.69;93999.38;4954102;28;20034;-93
2023/01/29 03:05:42;;;;;;;2.40;1.90;;;;;;;15.85;42.69;93994.06;4959943;28;20042;-93
2023/01/29 03:08:09;;;;;;;2.83;2.50;;;;;;;15.85;42.99;94002.22;4957786;28;20050;-93
2023/01/29 03:10:37;;;;;;;2.53;2.20;;;;;;;15.82;43.13;93993.03;4940844;28;20860;-94
2023/01/29 03:13:07;;;;;;;2.30;1.95;;;;;;;15.83;42.88;93993.78;4935076;28;20465;-93
2023/01/29 03:15:37;;;;;;;3.20;2.33;;;;;;;15.77;43.15;93985.56;4974371;28;20053;-93
2023/01/29 03:18:11;;;;;;;2.07;1.87;;;;;;;15.88;42.54;93977.47;4939807;28;20046;-93
2023/01/29 03:20:47;;;;;;;3.25;2.22;;;;;;;15.81;42.79;93985.31;4941438;28;20035;-93
2023/01/29 03:23:22;;;;;;;3.55;2.15;;;;;;;15.81;43.12;93988.81;4940729;28;20073;-94
2023/01/29 03:34:15;;;;;;;3.28;2.28;;;;;;;15.79;42.95;93974.19;4959543;28;20054;-93
2023/01/29 03:36:46;;;;;;;3.38;2.30;;;;;;;15.79;43.12;93969.47;4927232;28;20043;-92
2023/01/29 03:39:11;;;;;;;;;;;;;;;15.87;43.03;93975.25;4944495;28;20046;-94
2023/01/29 03:41:41;;;;;;;3.10;1.92;;;;;;;15.79;43.09;93968.72;4958965;28;19924;-92
2023/01/29 03:44:13;;;;;;;2.67;2.15;;;;;;;15.74;42.91;93968.19;4938478;28;20043;-93
2023/01/29 03:46:55;;;;;;;2.22;2.00;;;;;;;15.75;43.43;93974.38;4940923;28;20054;-93
2023/01/29 03:49:31;;;;;;;3.05;2.00;;;;;;;15.81;43.05;93963.53;4944516;28;20096;-93
2023/01/29 03:52:01;;;;;;;2.63;2.13;;;;;;;15.80;43.22;93962.06;4942727;28;20034;-94
2023/01/29 03:54:56;;;;;;;2.08;1.85;;;;;;;15.81;42.87;93972.44;4957896;28;20046;-93
2023/01/29 03:57:36;;;;;;;2.92;2.50;;;;;;;15.79;43.10;93987.81;4960875;28;20035;-94
2023/01/29 04:00:09;;;;;;;2.60;1.98;;;;;;;15.77;43.24;93991.00;4943758;28;20085;-93
2023/01/29 04:02:40;;;;;;;2.38;1.63;;;;;;;15.76;43.08;93982.09;4966902;28;20390;-94
2023/01/29 04:05:10;;;;;;;2.65;1.98;;;;;;;15.74;43.24;93984.53;4942939;28;20034;-93
2023/01/29 04:07:36;;;;;;;2.55;1.95;;;;;;;15.79;42.70;93980.38;4942720;28;20054;-93
2023/01/29 04:10:08;;;;;;;2.60;1.88;;;;;;;15.82;42.72;93987.56;4958800;28;20042;-93
2023/01/29 04:12:42;;;;;;;2.10;1.90;;;;;;;15.81;43.09;93982.59;4957552;28;20035;-93
2023/01/29 04:15:09;;;;;;;3.13;1.98;;;;;;;15.80;42.85;93970.97;4949588;28;20433;-93
2023/01/29 04:17:38;;;;;;;2.40;1.98;;;;;;;15.82;43.26;93971.22;4943690;28;20044;-94
2023/01/29 04:20:04;;;;;;;2.70;2.10;;;;;;;15.82;43.28;93976.66;4958714;28;20030;-94
2023/01/29 04:22:34;;;;;;;2.83;2.40;;;;;;;15.82;42.99;93971.22;4942304;28;20041;-93
2023/01/29 04:25:01;;;;;;;2.67;2.03;;;;;;;15.80;42.85;93968.25;4942779;28;20089;-93
2023/01/29 04:27:42;;;;;;;2.72;2.00;;;;;;;15.82;42.98;93973.19;4941925;28;20125;-94
2023/01/29 04:30:42;;;;;;;2.67;2.10;;;;;;;15.79;42.83;93979.63;4972547;28;20093;-93
2023/01/29 04:33:28;;;;;;;2.67;2.03;;;;;;;15.83;43.04;93989.06;4941502;28;20129;-93
2023/01/29 04:36:34;;;;;;;3.03;2.05;;;;;;;15.81;42.73;93983.34;4971109;28;20058;-93
2023/01/29 04:39:10;;;;;;;2.70;2.10;;;;;;;15.82;42.82;93978.66;4970811;28;20047;-93
2023/01/29 04:42:03;;;;;;;2.55;1.92;;;;;;;15.84;43.00;93970.75;4955167;28;20047;-94
2023/01/29 04:44:43;;;;;;;2.40;1.83;;;;;;;15.83;43.01;93974.69;4951166;28;20042;-93
2023/01/29 04:47:32;;;;;;;3.15;2.25;;;;;;;15.80;42.97;93962.81;4972533;28;20062;-93
2023/01/29 04:50:21;;;;;;;2.83;2.13;;;;;;;15.79;42.96;93960.56;4970851;28;20061;-93
2023/01/29 04:52:52;;;;;;;2.67;2.00;;;;;;;15.85;42.56;93966.78;4955206;28;20043;-93
2023/01/29 04:55:39;;;;;;;2.15;1.63;;;;;;;15.79;43.16;93971.44;4970648;28;20046;-94
2023/01/29 04:58:11;;;;;;;2.35;1.90;;;;;;;15.78;42.86;93976.16;4940437;28;20060;-93
2023/01/29 05:00:41;;;;;;;2.75;2.10;;;;;;;15.79;42.69;93961.31;4938808;28;20035;-94
2023/01/29 05:03:08;;;;;;;3.50;2.57;;;;;;;15.80;42.75;93973.69;4935075;28;20043;-93
2023/01/29 05:05:34;;;;;;;5.10;2.50;;;;;;;15.80;42.99;93967.50;4935372;29;20287;-94
2023/01/29 05:07:59;;;;;;;3.17;2.42;;;;;;;15.79;42.66;93968.72;4926841;28;20191;-93
2023/01/29 05:10:24;;;;;;;2.50;2.00;;;;;;;15.77;42.82;93966.47;4954143;28;20043;-94
2023/01/29 05:13:00;;;;;;;2.35;2.00;;;;;;;15.77;43.16;93944.69;4937137;28;20440;-93
2023/01/29 05:15:30;;;;;;;2.70;2.10;;;;;;;15.77;43.18;93945.44;4953792;28;20053;-93
2023/01/29 05:18:01;;;;;;;3.22;2.13;;;;;;;15.79;42.94;93946.91;4939059;28;20059;-93
2023/01/29 05:20:31;;;;;;;2.28;2.00;;;;;;;15.80;42.75;93940.25;4949158;28;20067;-93
2023/01/29 05:22:56;;;;;;;3.05;2.20;;;;;;;15.80;43.08;93954.63;4955231;28;20035;-94
2023/01/29 05:25:25;;;;;;;1.92;1.80;;;;;;;15.79;42.96;93955.84;4954017;28;20062;-94
2023/01/29 05:28:06;;;;;;;2.60;1.98;;;;;;;15.81;43.01;93958.06;4954408;28;20043;-94
2023/01/29 05:30:33;;;;;;;2.78;2.10;;;;;;;15.79;42.77;93955.84;4955545;28;20038;-94
2023/01/29 05:32:59;;;;;;;2.42;1.95;;;;;;;15.81;42.88;93966.25;4951589;28;20085;-93
2023/01/29 05:35:24;;;;;;;2.92;2.00;;;;;;;15.80;42.97;93970.97;4950439;28;20043;-93
2023/01/29 05:37:50;;;;;;;3.60;2.13;;;;;;;15.77;42.91;93969.22;4949754;28;20121;-93
2023/01/29 05:40:16;;;;;;;2.47;1.92;;;;;;;15.80;42.79;93967.50;4955379;28;20506;-93
2023/01/29 05:42:41;;;;;;;3.00;2.25;;;;;;;15.80;42.71;93968.25;4958363;28;20142;-93
2023/01/29 05:45:08;;;;;;;2.17;1.77;;;;;;;15.80;42.53;93979.16;4957506;28;20472;-94
2023/01/29 05:47:33;;;;;;;2.50;2.00;;;;;;;15.77;42.63;93969.22;4957404;28;20042;-93
2023/01/29 05:49:59;;;;;;;2.70;2.10;;;;;;;15.80;42.66;93984.59;4958568;28;20047;-94
2023/01/29 05:52:25;;;;;;;2.75;2.03;;;;;;;15.84;42.15;93976.94;4957015;28;20042;-93
2023/01/29 05:54:51;;;;;;;2.67;2.25;;;;;;;15.79;42.80;93979.63;4957796;28;20047;-93
2023/01/29 05:57:16;;;;;;;2.70;2.20;;;;;;;15.75;42.82;93977.88;4953594;28;20043;-94
2023/01/29 05:59:42;;;;;;;2.28;2.08;;;;;;;15.85;42.24;93969.50;4973600;28;20059;-93
2023/01/29 06:02:08;;;;;;;2.85;2.30;;;;;;;15.81;42.89;93967.00;4962865;28;20046;-94
2023/01/29 06:04:34;;;;;;;2.60;2.10;;;;;;;15.80;42.69;93962.81;4957427;28;20038;-93
2023/01/29 06:07:02;;;;;;;3.05;2.10;;;;;;;15.77;42.76;93964.50;4957236;28;20073;-93
2023/01/29 06:09:27;;;;;;;2.70;2.10;;;;;;;15.78;43.00;93967.97;4957938;28;20498;-94
2023/01/29 06:11:53;;;;;;;2.55;2.15;;;;;;;15.88;42.79;93957.66;4938064;28;20052;-93
2023/01/29 06:14:18;;;;;;;2.45;1.98;;;;;;;15.82;42.61;93965.03;4948698;28;20054;-93
2023/01/29 06:16:44;;;;;;;2.38;1.80;;;;;;;15.85;43.05;93970.25;4957802;28;20468;-94
2023/01/29 06:19:09;;;;;;;2.00;1.75;;;;;;;15.81;42.64;93967.00;4957320;28;20043;-93
2023/01/29 06:21:35;;;;;;;2.35;1.65;;;;;;;15.81;42.49;93963.53;4957368;28;20066;-94
2023/01/29 06:24:02;;;;;;;2.83;1.92;;;;;;;15.80;42.68;93975.69;4957285;28;20043;-93
2023/01/29 06:26:28;;;;;;;2.33;2.05;;;;;;;15.80;43.07;93970.97;4940752;28;20114;-93
2023/01/29 06:28:53;;;;;;;5.68;4.97;;;;;;;15.95;41.42;93957.97;4960674;28;20039;-92
2023/01/29 06:31:19;;;;;;;22.15;15.85;;;;;;;15.81;42.52;93947.91;4955502;28;20039;-91
2023/01/29 06:33:45;;;;;;;25.15;15.93;;;;;;;15.80;42.47;93953.88;4971305;28;20079;-93
2023/01/29 06:36:14;;;;;;;6.40;5.00;;;;;;;15.82;42.95;93965.78;4908704;28;20079;-94
2023/01/29 06:38:41;;;;;;;9.48;6.65;;;;;;;15.83;42.84;93961.81;4941256;29;20098;-93
2023/01/29 06:41:12;;;;;;;7.75;5.88;;;;;;;15.85;42.10;93955.88;4914295;28;20575;-94
2023/01/29 06:43:50;;;;;;;6.63;4.75;;;;;;;15.86;42.78;93957.38;4920603;29;20080;-94
2023/01/29 06:46:28;;;;;;;7.05;3.25;;;;;;;15.80;42.47;93964.78;4913356;28;20120;-94
2023/01/29 06:49:00;;;;;;;11.60;7.05;;;;;;;15.67;38.90;93963.16;4909802;29;20118;-93
2023/01/29 06:51:31;;;;;;;8.07;4.90;;;;;;;15.59;41.17;93964.78;4861952;29;20157;-93
2023/01/29 06:54:33;;;;;;;6.55;5.25;;;;;;;15.70;41.09;93964.91;4843292;29;20044;-93
2023/01/29 06:56:59;;;;;;;6.35;4.90;;;;;;;15.62;41.74;93963.81;4859586;29;20045;-93
2023/01/29 07:03:24;;;;;;;10.13;7.38;;;;;;;15.42;37.63;93959.13;4803395;29;20624;-94
2023/01/29 07:10:09;;;;;;;13.68;7.32;;;;;;;15.47;39.84;93967.84;4687911;30;20057;-94
2023/01/29 07:13:00;;;;;;;16.92;13.32;;;;;;;15.55;40.34;93961.50;4643393;30;20076;-93
2023/01/29 07:18:37;;;;;;;8.88;7.70;;;;;;;15.60;41.09;93960.84;4648449;30;20074;-94
2023/01/29 07:21:13;;;;;;;11.40;8.10;;;;;;;15.60;41.26;93960.09;4657063;30;20042;-93
2023/01/29 07:24:05;;;;;;;9.52;6.95;;;;;;;15.61;41.30;93962.31;4662384;30;20061;-94
2023/01/29 07:27:02;;;;;;;7.85;6.75;;;;;;;15.63;41.43;93959.88;4685661;30;20045;-94
2023/01/29 07:37:51;;;;;;;;;;;;;;;;;;;;;
2023/01/29 07:40:31;;;;;;;9.25;8.07;;;;;;;15.63;41.08;93950.94;4694811;30;41938;-94
2023/01/29 07:43:00;;;;;;;13.32;7.63;;;;;;;15.64;41.10;93947.00;4755411;29;20111;-93
2023/01/29 07:45:34;;;;;;;9.82;7.22;;;;;;;15.66;41.02;93945.28;4768618;29;20470;-93
2023/01/29 07:48:04;;;;;;;9.38;8.20;;;;;;;15.68;40.98;93940.13;4771342;30;20200;-93
2023/01/29 07:50:32;;;;;;;10.07;9.02;;;;;;;15.64;40.86;93936.84;4775705;29;20083;-95
2023/01/29 07:52:58;;;;;;;9.95;7.43;;;;;;;15.69;41.45;93943.59;4768638;29;20047;-94
2023/01/29 07:55:26;;;;;;;14.68;11.98;;;;;;;15.70;41.20;93939.63;4786401;29;20056;-94
2023/01/29 07:57:56;;;;;;;20.45;15.02;;;;;;;15.69;41.52;93955.25;4818075;29;20080;-93
2023/01/29 08:00:24;;;;;;;17.15;14.32;;;;;;;15.71;41.36;93946.59;4839409;29;20601;-92
2023/01/29 08:02:52;;;;;;;16.05;12.02;;;;;;;15.74;41.38;93961.97;4830063;29;20105;-93
2023/01/29 08:05:23;;;;;;;13.70;11.13;;;;;;;15.74;41.22;93962.72;4849362;29;20045;-93
2023/01/29 08:07:52;;;;;;;12.52;10.32;;;;;;;15.71;41.43;93971.88;4971224;28;20030;-94
2023/01/29 08:10:18;;;;;;;10.38;9.05;;;;;;;15.75;41.29;93969.69;4944001;28;20057;-93
2023/01/29 08:12:46;;;;;;;10.25;8.85;;;;;;;15.74;41.44;93972.88;4960293;28;20046;-93
2023/01/29 08:15:11;;;;;;;14.30;8.75;;;;;;;15.75;41.13;93971.66;4933017;28;20099;-93
2023/01/29 08:17:38;;;;;;;11.85;9.38;;;;;;;15.74;41.35;93972.88;4923971;28;20053;-94
2023/01/29 08:20:07;;;;;;;9.80;8.55;;;;;;;15.72;41.28;93967.16;4939447;28;20048;-92
2023/01/29 08:22:34;;;;;;;10.57;9.40;;;;;;;15.86;40.65;93973.75;4960419;28;20088;-94
2023/01/29 08:25:02;;;;;;;36.33;26.33;;;;;;;15.77;41.34;93974.66;4951066;28;20080;-94
2023/01/29 08:27:27;;;;;;;23.83;18.85;;;;;;;15.71;41.35;93979.28;4943472;28;20638;-94
2023/01/29 08:29:57;;;;;;;15.35;11.63;;;;;;;15.73;41.82;93987.75;4933802;28;20051;-94
2023/01/29 08:32:23;;;;;;;13.50;10.82;;;;;;;15.72;41.37;93986.25;4933964;28;20052;-94
2023/01/29 08:34:57;;;;;;;13.13;10.35;;;;;;;15.77;41.26;93994.50;4953723;28;20050;-94
2023/01/29 08:37:25;;;;;;;10.70;9.60;;;;;;;15.74;41.87;93992.72;4946186;28;20125;-94
2023/01/29 08:39:54;;;;;;;12.13;9.73;;;;;;;15.75;41.17;93990.75;4949161;28;20059;-94
2023/01/29 08:42:20;;;;;;;14.32;9.18;;;;;;;15.76;41.62;93994.97;4942127;28;20046;-94
2023/01/29 08:44:48;;;;;;;12.30;9.25;;;;;;;15.79;41.47;94004.16;4959339;28;20094;-94
2023/01/29 08:47:17;;;;;;;21.40;18.40;;;;;;;15.76;41.26;94003.91;4944891;28;20053;-93
2023/01/29 08:49:42;;;;;;;24.83;20.27;;;;;;;15.73;41.83;93996.66;4939345;28;20062;-93
2023/01/29 08:52:12;;;;;;;21.85;18.58;;;;;;;15.75;41.63;94007.84;4916116;28;20039;-93
2023/01/29 08:54:40;;;;;;;15.38;13.02;;;;;;;15.80;41.48;94008.41;4949404;28;20034;-94
2023/01/29 08:57:06;;;;;;;14.32;11.43;;;;;;;15.82;41.24;93993.03;4941474;28;20038;-94
2023/01/29 08:59:32;;;;;;;13.55;10.60;;;;;;;15.82;41.80;93997.72;4920967;28;20110;-93
2023/01/29 09:02:02;;;;;;;13.70;10.75;;;;;;;15.84;41.35;93998.00;4916729;28;20038;-94
2023/01/29 09:04:28;;;;;;;14.68;10.77;;;;;;;15.81;41.39;94007.13;4913337;28;20043;-93
2023/01/29 09:06:54;;;;;;;12.07;10.15;;;;;;;15.80;41.45;94013.84;4941744;28;20046;-93
2023/01/29 09:09:19;;;;;;;12.50;9.65;;;;;;;15.83;41.45;94004.69;4933311;28;20043;-93
2023/01/29 09:11:45;;;;;;;11.88;9.27;;;;;;;15.87;41.07;94016.13;4948067;28;20525;-94
2023/01/29 09:14:13;;;;;;;16.42;9.50;;;;;;;15.87;41.43;94024.31;4959831;28;20122;-94
2023/01/29 09:16:39;;;;;;;12.90;9.70;;;;;;;15.89;41.40;94010.94;4966145;28;20137;-94
2023/01/29 09:19:07;;;;;;;16.13;12.52;;;;;;;15.82;41.43;94012.09;4894664;29;20067;-95
2023/01/29 09:21:34;;;;;;;15.18;13.50;;;;;;;15.87;41.14;94021.59;4873348;29;20047;-95
2023/01/29 09:24:00;;;;;;;14.60;12.65;;;;;;;15.82;41.65;94025.75;4907788;29;20068;-94
2023/01/29 09:26:25;;;;;;;14.48;11.75;;;;;;;15.81;41.60;94032.41;4887464;29;20040;-96
2023/01/29 09:28:51;;;;;;;15.98;11.95;;;;;;;15.85;41.55;94027.50;4895675;29;20052;-94
2023/01/29 09:31:25;;;;;;;13.63;10.85;;;;;;;15.83;41.41;94029.22;4888071;29;20037;-93
2023/01/29 09:34:18;;;;;;;11.50;10.40;;;;;;;15.88;41.29;94028.53;4900434;29;20051;-93
2023/01/29 09:43:20;;;;;;;13.90;9.68;;;;;;;15.88;41.71;94034.00;5021886;23;20045;-94
2023/01/29 09:59:58;;;;;;;;;;;;;;;;;;;;;
2023/01/29 10:03:23;;;;;;;9.50;8.20;;;;;;;15.87;41.07;94059.75;4870076;29;20057;-95
2023/01/29 10:06:20;;;;;;;13.35;11.05;;;;;;;15.87;41.65;94054.31;4838825;29;20056;-95
2023/01/29 10:12:45;;;;;;;15.25;11.00;;;;;;;15.87;41.70;94059.75;4774918;29;20600;-95
2023/01/29 10:15:29;;;;;;;11.70;9.68;;;;;;;15.90;41.66;94056.81;4776014;29;20050;-95
2023/01/29 10:18:16;;;;;;;13.73;9.32;;;;;;;15.92;41.35;94059.06;4791886;29;20047;-94
2023/01/29 10:20:56;;;;;;;11.30;9.00;;;;;;;15.93;41.41;94049.66;4807656;29;20081;-94
2023/01/29 10:23:29;;;;;;;9.68;8.38;;;;;;;15.92;41.51;94056.34;4790716;29;20039;-94
2023/01/29 10:25:55;;;;;;;10.18;8.18;;;;;;;15.96;41.45;94051.44;4789763;29;20057;-95
2023/01/29 10:31:03;;;;;;;9.07;7.88;;;;;;;15.94;41.04;94037.53;4992013;23;20046;-95
2023/01/29 10:33:31;;;;;;;10.60;8.48;;;;;;;15.92;41.35;94031.81;4917047;29;20123;-94
2023/01/29 10:36:01;;;;;;;26.13;18.42;;;;;;;15.89;41.82;94035.50;4932846;29;20047;-95
2023/01/29 10:38:54;;;;;;;22.93;16.33;;;;;;;15.88;41.77;94034.75;4947549;28;20066;-94
2023/01/29 10:41:49;;;;;;;14.98;13.13;;;;;;;15.90;41.76;94023.34;4962970;28;20035;-96
2023/01/29 10:44:46;;;;;;;11.80;10.32;;;;;;;15.91;41.46;94006.53;4939427;28;20114;-95
2023/01/29 10:47:51;;;;;;;23.60;19.67;;;;;;;15.98;41.31;93997.94;4968924;28;20291;-93
2023/01/29 10:50:43;;;;;;;24.02;18.80;;;;;;;15.91;41.45;93986.69;4950820;28;20068;-93
2023/01/29 10:53:40;;;;;;;22.85;19.10;;;;;;;15.95;41.38;93982.53;4861792;29;20070;-94
2023/01/29 10:56:32;;;;;;;17.50;14.15;;;;;;;15.91;41.73;93986.69;4855097;29;20045;-93
2023/01/29 10:59:12;;;;;;;16.38;10.98;;;;;;;15.91;41.60;93981.97;4865505;29;20070;-95
2023/01/29 11:01:52;;;;;;;12.75;10.20;;;;;;;15.91;41.81;93992.88;5049806;23;20021;-93
2023/01/29 11:04:54;;;;;;;12.43;9.27;;;;;;;16.02;41.06;93992.25;4865136;29;20093;-93
2023/01/29 11:10:12;;;;;;;12.75;10.20;;;;;;;15.95;41.78;93989.97;5246761;23;20050;-94
2023/01/29 11:12:58;;;;;;;11.30;9.95;;;;;;;15.95;41.46;93985.25;4934028;28;20083;-94
2023/01/29 11:15:54;;;;;;;12.70;10.05;;;;;;;15.94;41.74;93983.00;4935049;28;20039;-94
2023/01/29 11:18:21;;;;;;;12.23;10.93;;;;;;;15.92;41.64;93975.31;4971359;28;20034;-93
2023/01/29 11:23:38;;;;;;;14.55;12.60;;;;;;;16.01;41.30;93966.22;5008092;23;20026;-91
2023/01/29 11:26:04;;;;;;;16.92;14.38;;;;;;;15.98;41.56;93959.00;4947019;28;20026;-90
2023/01/29 11:28:40;;;;;;;14.20;11.88;;;;;;;15.98;41.36;93959.00;4945597;28;20043;-92
2023/01/29 11:31:20;;;;;;;12.85;11.48;;;;;;;15.96;41.53;93956.75;4948506;28;20066;-91
2023/01/29 11:33:53;;;;;;;9.95;8.75;;;;;;;16.05;41.15;93950.38;4963112;28;20115;-91
2023/01/29 11:36:38;;;;;;;10.18;8.90;;;;;;;15.97;41.59;93930.25;4947215;28;20035;-91
2023/01/29 11:39:20;;;;;;;12.30;9.77;;;;;;;15.99;41.48;93930.50;4947335;28;20035;-89
2023/01/29 11:41:54;;;;;;;11.48;9.70;;;;;;;15.95;41.85;93930.72;4947666;28;20046;-90
2023/01/29 11:44:27;;;;;;;12.43;9.70;;;;;;;16.03;41.55;93928.28;4979624;28;20091;-90
2023/01/29 11:46:52;;;;;;;10.88;9.18;;;;;;;15.96;41.82;93926.75;4963760;28;20624;-91
2023/01/29 11:49:36;;;;;;;11.98;10.13;;;;;;;15.97;41.63;93938.41;4946149;28;20018;-90
2023/01/29 11:52:04;;;;;;;12.45;8.30;;;;;;;16.04;41.24;93936.00;4963987;28;20039;-91
2023/01/29 11:54:37;;;;;;;9.88;8.23;;;;;;;16.06;41.00;93928.06;4978355;28;20038;-91
2023/01/29 11:57:02;;;;;;;9.18;7.90;;;;;;;16.05;41.49;93928.56;4984343;28;20057;-89
2023/01/29 11:59:42;;;;;;;9.48;8.20;;;;;;;16.00;41.57;93921.09;4928755;29;20039;-91
2023/01/29 12:02:20;;;;;;;10.32;8.60;;;;;;;15.98;41.29;93926.28;4963509;28;20038;-91
2023/01/29 12:04:45;;;;;;;10.30;8.57;;;;;;;16.00;41.49;93912.91;4979697;28;20047;-91
2023/01/29 12:07:14;;;;;;;9.70;8.30;;;;;;;15.98;41.45;93916.13;4963992;28;20041;-91
2023/01/29 12:09:40;;;;;;;9.23;7.97;;;;;;;15.98;41.39;93910.66;4949125;28;20082;-91
2023/01/29 12:12:24;;;;;;;8.80;7.72;;;;;;;16.01;41.34;93904.25;4952012;28;20057;-90
2023/01/29 12:15:01;;;;;;;10.50;8.23;;;;;;;16.06;41.22;93910.97;4979494;28;20478;-91
2023/01/29 12:17:27;;;;;;;25.85;23.08;;;;;;;16.03;41.76;93899.03;4993707;28;20083;-92
2023/01/29 12:19:56;;;;;;;22.13;19.40;;;;;;;15.99;41.64;93892.34;4945591;29;20070;-94
2023/01/29 12:22:49;;;;;;;10.98;9.05;;;;;;;16.10;41.64;93881.50;4937716;28;20061;-92
2023/01/29 12:25:33;;;;;;;8.82;7.53;;;;;;;16.08;41.79;93892.13;4953924;28;20482;-93
2023/01/29 12:27:59;;;;;;;10.25;8.43;;;;;;;16.06;41.68;93878.25;4965678;28;20039;-93
2023/01/29 12:30:32;;;;;;;9.70;8.38;;;;;;;16.06;41.50;93881.72;4975189;28;20122;-92
2023/01/29 12:33:07;;;;;;;10.55;8.98;;;;;;;16.05;41.61;93872.03;4953475;28;20178;-93
2023/01/29 12:35:37;;;;;;;14.93;11.95;;;;;;;16.07;41.40;93871.56;4956272;28;20043;-92
2023/01/29 12:38:22;;;;;;;19.33;16.98;;;;;;;16.02;41.45;93862.09;4945490;28;20050;-93
2023/01/29 12:41:04;;;;;;;14.00;12.30;;;;;;;16.06;41.79;93853.69;4961953;28;20039;-93
2023/01/29 12:43:32;;;;;;;12.52;11.23;;;;;;;16.05;41.68;93847.50;4959752;28;20031;-93
2023/01/29 12:46:06;;;;;;;11.82;10.50;;;;;;;16.03;41.52;93849.22;4973620;28;20062;-94
2023/01/29 12:48:37;;;;;;;11.55;9.95;;;;;;;16.00;41.55;93848.22;4945365;28;20045;-92
2023/01/29 12:51:06;;;;;;;;;;;;;;;16.06;41.45;93845.50;4951751;28;20035;-89
2023/01/29 12:53:46;;;;;;;13.52;10.40;;;;;;;16.05;41.31;93846.75;4967579;28;20010;-92
2023/01/29 12:56:15;;;;;;;10.93;9.32;;;;;;;16.07;41.65;93847.00;4935358;28;20049;-94
2023/01/29 12:58:42;;;;;;;12.15;9.50;;;;;;;16.05;41.80;93850.22;4937500;28;20038;-93
2023/01/29 13:01:27;;;;;;;11.30;8.75;;;;;;;16.04;41.64;93843.28;4948477;28;20045;-92
2023/01/29 13:04:10;;;;;;;10.55;9.27;;;;;;;16.01;41.77;93843.53;4976617;28;20043;-94
2023/01/29 13:06:41;;;;;;;11.05;8.98;;;;;;;16.01;41.63;93838.81;4916204;29;20043;-94
2023/01/29 13:09:07;;;;;;;;;;;;;;;16.05;41.57;93846.75;4919690;28;20072;-96
2023/01/29 13:11:38;;;;;;;10.43;8.70;;;;;;;16.02;41.76;93836.84;4947784;28;19922;-92
2023/01/29 13:14:12;;;;;;;10.60;8.63;;;;;;;16.06;41.51;93838.09;4965202;28;20089;-95